createdAt,value
2017-10-06T00:01:29.941Z,15.33
2017-10-06T00:03:57.506Z,17.50
2017-10-06T00:06:25.068Z,15.73
2017-10-06T00:08:53.375Z,17.73
2017-10-06T00:11:21.704Z,18.43
2017-10-06T00:13:49.253Z,20.33
2017-10-06T00:16:16.839Z,17.80
2017-10-06T00:18:44.379Z,20.83
2017-10-06T00:21:11.933Z,20.03
2017-10-06T00:23:39.498Z,15.37
2017-10-06T00:26:07.039Z,26.27
2017-10-06T00:28:34.596Z,19.07
2017-10-06T00:31:02.136Z,18.13
2017-10-06T00:33:30.468Z,17.67
2017-10-06T00:35:58.776Z,16.13
2017-10-06T00:38:26.339Z,20.30
2017-10-06T00:40:53.880Z,11.03
2017-10-06T00:43:21.443Z,15.97
2017-10-06T00:45:48.987Z,12.83
2017-10-06T00:48:16.556Z,17.03
2017-10-06T00:50:44.096Z,15.87
2017-10-06T00:53:11.657Z,17.60
2017-10-06T00:55:39.202Z,21.00
2017-10-06T00:58:06.760Z,14.20
2017-10-06T01:00:34.300Z,14.43
2017-10-06T01:03:01.864Z,13.33
2017-10-06T01:05:29.403Z,18.50
2017-10-06T01:07:57.731Z,15.47
2017-10-06T01:10:25.273Z,10.33
2017-10-06T01:12:52.841Z,15.10
2017-10-06T01:15:20.383Z,13.87
2017-10-06T01:17:47.919Z,14.93
2017-10-06T01:20:16.251Z,13.20
2017-10-06T01:22:43.790Z,12.50
2017-10-06T01:25:11.351Z,12.07
2017-10-06T01:27:38.879Z,9.40
2017-10-06T01:30:07.203Z,13.73
2017-10-06T01:32:34.738Z,12.50
2017-10-06T01:35:02.309Z,13.37
2017-10-06T01:37:29.852Z,14.43
2017-10-06T01:39:57.418Z,14.93
2017-10-06T01:42:24.956Z,10.17
2017-10-06T01:44:53.295Z,11.83
2017-10-06T01:47:20.827Z,14.23
2017-10-06T01:49:48.383Z,14.60
2017-10-06T01:52:15.919Z,14.53
2017-10-06T01:54:44.248Z,13.17
2017-10-06T01:57:11.788Z,16.03
2017-10-06T01:59:39.348Z,18.73
2017-10-06T02:02:06.887Z,13.80
2017-10-06T02:04:34.452Z,16.70
2017-10-06T02:07:01.991Z,15.23
2017-10-06T02:09:30.324Z,12.50
2017-10-06T02:11:57.861Z,15.67
2017-10-06T02:14:25.444Z,13.90
2017-10-06T02:16:52.980Z,13.33
2017-10-06T02:19:20.524Z,16.57
2017-10-06T02:21:48.084Z,22.70
2017-10-06T02:24:15.619Z,18.20
2017-10-06T02:26:43.947Z,12.13
2017-10-06T02:29:11.493Z,20.80
2017-10-06T02:31:39.061Z,16.33
2017-10-06T02:34:06.591Z,16.27
2017-10-06T02:36:34.919Z,10.93
2017-10-06T02:39:02.463Z,10.77
2017-10-06T02:41:30.025Z,19.40
2017-10-06T02:43:57.570Z,17.93
2017-10-06T02:46:25.132Z,11.13
2017-10-06T02:48:52.668Z,16.57
2017-10-06T02:51:20.995Z,15.00
2017-10-06T02:53:48.540Z,15.60
2017-10-06T02:56:16.101Z,11.83
2017-10-06T02:58:43.643Z,18.43
2017-10-06T03:04:04.500Z,13.80
2017-10-06T03:06:32.068Z,20.07
2017-10-06T03:08:59.602Z,19.40
2017-10-06T03:11:27.168Z,17.57
2017-10-06T03:13:54.704Z,16.30
2017-10-06T03:16:22.265Z,12.40
2017-10-06T03:18:49.795Z,13.80
2017-10-06T03:21:18.124Z,17.50
2017-10-06T03:23:45.663Z,14.07
2017-10-06T03:26:13.247Z,21.20
2017-10-06T03:28:40.789Z,15.57
2017-10-06T03:31:08.324Z,22.50
2017-10-06T03:33:36.652Z,15.83
2017-10-06T03:36:04.192Z,12.40
2017-10-06T03:38:31.747Z,15.17
2017-10-06T03:40:59.291Z,15.57
2017-10-06T03:43:26.864Z,12.00
2017-10-06T03:45:54.400Z,9.20
2017-10-06T03:48:22.723Z,8.33
2017-10-06T03:50:50.259Z,9.50
2017-10-06T03:53:17.816Z,9.40
2017-10-06T03:55:45.363Z,9.80
2017-10-06T03:58:12.927Z,13.10
2017-10-06T04:00:40.472Z,12.40
2017-10-06T04:03:08.805Z,10.80
2017-10-06T04:05:36.345Z,13.47
2017-10-06T04:08:03.901Z,12.10
2017-10-06T04:10:31.439Z,12.47
2017-10-06T04:12:59.005Z,14.80
2017-10-06T04:15:26.544Z,13.20
2017-10-06T04:17:54.868Z,12.70
2017-10-06T04:20:22.412Z,11.47
2017-10-06T04:22:49.971Z,11.67
2017-10-06T04:25:17.511Z,12.33
2017-10-06T04:27:45.861Z,13.53
2017-10-06T04:30:13.396Z,14.60
2017-10-06T04:32:40.939Z,9.03
2017-10-06T04:35:08.504Z,11.10
2017-10-06T04:37:36.788Z,12.10
2017-10-06T04:40:04.457Z,12.87
2017-10-06T04:42:32.763Z,9.63
2017-10-06T04:45:00.327Z,14.93
2017-10-06T04:47:28.636Z,12.63
2017-10-06T04:49:56.200Z,16.60
2017-10-06T04:52:23.743Z,9.80
2017-10-06T04:54:52.075Z,18.60
2017-10-06T04:57:20.387Z,14.73
2017-10-06T04:59:48.724Z,14.33
2017-10-06T05:02:16.266Z,12.50
2017-10-06T05:04:43.827Z,16.93
2017-10-06T05:07:11.380Z,12.70
2017-10-06T05:09:39.369Z,13.13
2017-10-06T05:12:07.005Z,16.07
2017-10-06T05:14:34.568Z,14.40
2017-10-06T05:17:02.099Z,18.30
2017-10-06T05:19:30.437Z,17.67
2017-10-06T05:21:57.986Z,20.27
2017-10-06T05:24:25.552Z,17.43
2017-10-06T05:26:53.151Z,19.20
2017-10-06T05:29:21.488Z,18.70
2017-10-06T05:31:49.017Z,9.03
2017-10-06T05:34:16.594Z,17.53
2017-10-06T05:36:44.135Z,14.83
2017-10-06T05:39:11.676Z,15.37
2017-10-06T05:41:40.055Z,11.83
2017-10-06T05:44:08.365Z,15.13
2017-10-06T05:46:35.929Z,19.60
2017-10-06T05:49:03.909Z,16.70
2017-10-06T05:51:32.287Z,11.93
2017-10-06T05:53:59.820Z,12.83
2017-10-06T05:56:27.398Z,14.30
2017-10-06T05:58:54.948Z,15.07
2017-10-06T06:01:22.507Z,20.87
2017-10-06T06:03:50.044Z,21.00
2017-10-06T06:06:18.371Z,18.50
2017-10-06T06:08:45.916Z,16.20
2017-10-06T06:11:13.484Z,16.93
2017-10-06T06:13:41.025Z,21.20
2017-10-06T06:16:08.588Z,21.17
2017-10-06T06:18:36.131Z,18.20
2017-10-06T06:21:03.692Z,20.63
2017-10-06T06:23:31.233Z,18.93
2017-10-06T06:25:59.569Z,18.23
2017-10-06T06:28:27.108Z,16.80
2017-10-06T06:30:54.680Z,18.13
2017-10-06T06:33:22.216Z,20.53
2017-10-06T06:35:49.776Z,13.23
2017-10-06T06:38:17.314Z,20.13
2017-10-06T06:40:45.616Z,18.20
2017-10-06T06:43:13.181Z,16.80
2017-10-06T06:45:40.719Z,20.93
2017-10-06T06:48:08.284Z,22.50
2017-10-06T06:50:35.824Z,31.40
2017-10-06T06:53:04.152Z,21.27
2017-10-06T06:55:31.691Z,24.07
2017-10-06T06:57:59.269Z,18.83
2017-10-06T07:00:26.824Z,13.30
2017-10-06T07:02:54.392Z,16.23
2017-10-06T07:05:21.945Z,17.33
2017-10-06T07:07:49.503Z,24.30
2017-10-06T07:10:17.040Z,23.53
2017-10-06T07:12:44.603Z,28.27
2017-10-06T07:15:12.145Z,23.73
2017-10-06T07:17:40.476Z,23.40
2017-10-06T07:20:08.013Z,24.50
2017-10-06T07:22:35.583Z,21.83
2017-10-06T07:25:03.119Z,24.43
2017-10-06T07:27:30.688Z,23.27
2017-10-06T07:29:58.228Z,22.70
2017-10-06T07:32:25.799Z,20.17
2017-10-06T07:34:53.348Z,22.57
2017-10-06T07:37:21.692Z,28.90
2017-10-06T07:39:49.237Z,17.90
2017-10-06T07:42:16.782Z,23.90
2017-10-06T07:44:44.354Z,26.40
2017-10-06T07:47:11.896Z,20.57
2017-10-06T07:49:39.466Z,19.03
2017-10-06T07:52:07.012Z,24.63
2017-10-06T07:54:34.579Z,24.70
2017-10-06T07:57:02.135Z,18.80
2017-10-06T07:59:29.700Z,22.63
2017-10-06T08:01:57.240Z,27.83
2017-10-06T08:04:24.807Z,34.53
2017-10-06T08:06:52.352Z,25.03
2017-10-06T08:09:19.917Z,28.50
2017-10-06T08:11:47.460Z,25.30
2017-10-06T08:14:15.794Z,25.60
2017-10-06T08:16:43.349Z,26.23
2017-10-06T08:19:10.915Z,33.37
2017-10-06T08:21:38.460Z,28.87
2017-10-06T08:24:06.041Z,32.50
2017-10-06T08:26:33.588Z,26.03
2017-10-06T08:29:01.155Z,27.53
2017-10-06T08:31:28.692Z,22.27
2017-10-06T08:33:56.260Z,22.50
2017-10-06T08:36:23.809Z,28.07
2017-10-06T08:38:51.377Z,27.37
2017-10-06T08:41:18.920Z,26.80
2017-10-06T08:43:46.469Z,27.70
2017-10-06T08:46:14.036Z,29.50
2017-10-06T08:48:41.576Z,24.70
2017-10-06T08:51:09.913Z,27.37
2017-10-06T08:53:37.480Z,28.57
2017-10-06T08:56:05.052Z,26.37
2017-10-06T08:58:32.592Z,22.03
2017-10-06T09:01:00.159Z,24.07
2017-10-06T09:03:27.709Z,26.63
2017-10-06T09:05:55.275Z,29.27
2017-10-06T09:08:22.820Z,23.60
2017-10-06T09:10:50.393Z,29.53
2017-10-06T09:13:17.944Z,26.20
2017-10-06T09:15:45.520Z,21.20
2017-10-06T09:18:13.068Z,28.03
2017-10-06T09:20:40.632Z,25.37
2017-10-06T09:23:08.168Z,27.13
2017-10-06T09:25:35.738Z,25.80
2017-10-06T09:28:03.281Z,33.13
2017-10-06T09:30:30.861Z,29.77
2017-10-06T09:32:58.408Z,32.10
2017-10-06T09:35:25.977Z,31.93
2017-10-06T09:37:53.520Z,31.50
2017-10-06T09:40:21.065Z,26.10
2017-10-06T09:42:48.623Z,25.23
2017-10-06T09:45:16.180Z,24.17
2017-10-06T09:47:43.761Z,23.53
2017-10-06T09:50:11.307Z,21.10
2017-10-06T09:52:38.879Z,27.87
2017-10-06T09:55:06.463Z,23.00
2017-10-06T09:57:34.022Z,25.93
2017-10-06T10:00:01.567Z,19.77
2017-10-06T10:02:29.140Z,23.97
2017-10-06T10:04:56.685Z,17.80
2017-10-06T10:07:24.261Z,32.87
2017-10-06T10:09:51.821Z,19.93
2017-10-06T10:12:19.393Z,16.73
2017-10-06T10:14:46.946Z,22.93
2017-10-06T10:17:14.514Z,18.53
2017-10-06T10:19:42.055Z,18.93
2017-10-06T10:22:10.388Z,18.07
2017-10-06T10:24:38.699Z,22.07
2017-10-06T10:27:06.268Z,18.03
2017-10-06T10:29:33.808Z,20.10
2017-10-06T10:32:01.374Z,20.60
2017-10-06T10:34:28.935Z,20.20
2017-10-06T10:36:56.510Z,18.27
2017-10-06T10:39:24.059Z,17.63
2017-10-06T10:41:51.635Z,12.87
2017-10-06T10:44:19.185Z,16.43
2017-10-06T10:46:46.907Z,16.13
2017-10-06T10:49:15.243Z,13.30
2017-10-06T10:51:42.800Z,13.30
2017-10-06T10:54:10.375Z,13.13
2017-10-06T10:56:37.920Z,10.43
2017-10-06T10:59:05.492Z,12.00
2017-10-06T11:01:33.036Z,12.20
2017-10-06T11:04:00.608Z,11.93
2017-10-06T11:06:28.155Z,16.17
2017-10-06T11:08:55.725Z,16.00
2017-10-06T11:11:24.040Z,13.67
2017-10-06T11:13:52.373Z,16.70
2017-10-06T11:16:19.925Z,14.43
2017-10-06T11:18:47.492Z,12.60
2017-10-06T11:21:15.803Z,15.00
2017-10-06T11:23:44.148Z,11.47
2017-10-06T11:26:11.696Z,12.00
2017-10-06T11:28:39.268Z,10.43
2017-10-06T11:31:06.810Z,7.83
2017-10-06T11:33:34.391Z,9.70
2017-10-06T11:36:01.939Z,7.10
2017-10-06T11:38:29.504Z,9.07
2017-10-06T11:40:57.052Z,10.17
2017-10-06T11:43:24.633Z,7.17
2017-10-06T11:45:52.175Z,12.93
2017-10-06T11:48:19.712Z,8.27
2017-10-06T11:50:47.276Z,9.83
2017-10-06T11:53:14.816Z,6.57
2017-10-06T11:55:43.143Z,6.87
2017-10-06T11:58:10.686Z,8.93
2017-10-06T12:00:38.253Z,9.40
2017-10-06T12:03:05.791Z,5.00
2017-10-06T12:05:33.346Z,5.33
2017-10-06T12:08:00.896Z,5.30
2017-10-06T12:10:28.463Z,6.80
2017-10-06T12:12:56.012Z,3.70
2017-10-06T12:15:24.339Z,3.50
2017-10-06T12:17:51.884Z,4.80
2017-10-06T12:20:19.449Z,4.47
2017-10-06T12:22:46.989Z,4.73
2017-10-06T12:25:14.551Z,3.90
2017-10-06T12:27:42.092Z,4.93
2017-10-06T12:30:09.654Z,5.33
2017-10-06T12:32:37.196Z,4.60
2017-10-06T12:35:05.529Z,3.80
2017-10-06T12:37:33.068Z,4.47
2017-10-06T12:40:00.635Z,4.53
2017-10-06T12:42:28.172Z,4.70
2017-10-06T12:44:55.712Z,6.20
2017-10-06T12:47:24.039Z,3.00
2017-10-06T12:49:51.575Z,3.40
2017-10-06T12:52:19.139Z,3.83
2017-10-06T12:54:46.671Z,5.83
2017-10-06T12:57:15.009Z,4.20
2017-10-06T12:59:42.577Z,4.93
2017-10-06T13:02:10.144Z,7.03
2017-10-06T13:04:37.696Z,4.77
2017-10-06T13:07:05.270Z,6.27
2017-10-06T13:09:32.809Z,4.30
2017-10-06T13:12:00.410Z,8.47
2017-10-06T13:14:28.715Z,6.00
2017-10-06T13:16:56.279Z,3.80
2017-10-06T13:19:23.826Z,5.47
2017-10-06T13:21:51.392Z,6.77
2017-10-06T13:24:18.932Z,4.30
2017-10-06T13:26:47.254Z,3.60
2017-10-06T13:29:14.797Z,3.50
2017-10-06T13:31:42.358Z,5.23
2017-10-06T13:34:09.905Z,4.30
2017-10-06T13:36:37.469Z,3.20
2017-10-06T13:39:05.004Z,6.03
2017-10-06T13:41:33.346Z,5.17
2017-10-06T13:44:00.889Z,3.53
2017-10-06T13:46:28.473Z,4.40
2017-10-06T13:48:56.020Z,3.80
2017-10-06T13:51:23.563Z,4.30
2017-10-06T13:53:51.128Z,4.83
2017-10-06T13:56:18.671Z,4.47
2017-10-06T13:58:46.243Z,5.33
2017-10-06T14:01:13.779Z,3.63
2017-10-06T14:03:41.372Z,6.67
2017-10-06T14:06:08.939Z,4.13
2017-10-06T14:08:36.500Z,4.40
2017-10-06T14:11:04.043Z,6.03
2017-10-06T14:13:31.606Z,3.90
2017-10-06T14:15:59.148Z,5.53
2017-10-06T14:18:26.714Z,5.63
2017-10-06T14:20:54.264Z,6.17
2017-10-06T14:23:21.828Z,7.33
2017-10-06T14:25:49.370Z,9.20
2017-10-06T14:28:17.697Z,6.20
2017-10-06T14:30:45.239Z,5.50
2017-10-06T14:33:12.802Z,6.20
2017-10-06T14:35:40.340Z,4.67
2017-10-06T14:38:07.913Z,8.07
2017-10-06T14:40:35.461Z,4.80
2017-10-06T14:43:03.025Z,3.70
2017-10-06T14:45:30.564Z,4.03
2017-10-06T14:47:58.922Z,5.57
2017-10-06T14:50:26.464Z,6.57
2017-10-06T14:52:54.008Z,6.87
2017-10-06T14:55:21.572Z,4.73
2017-10-06T14:57:49.116Z,5.57
2017-10-06T15:00:16.673Z,3.20
2017-10-06T15:02:44.215Z,3.80
2017-10-06T15:05:11.783Z,3.97
2017-10-06T15:07:39.322Z,5.50
2017-10-06T15:10:06.892Z,5.43
2017-10-06T15:12:34.437Z,3.60
2017-10-06T15:15:02.768Z,5.30
2017-10-06T15:17:30.310Z,3.83
2017-10-06T15:19:57.876Z,4.87
2017-10-06T15:22:25.422Z,3.50
2017-10-06T15:24:52.990Z,5.97
2017-10-06T15:27:20.528Z,4.10
2017-10-06T15:29:48.096Z,4.30
2017-10-06T15:32:15.636Z,4.33
2017-10-06T15:34:43.212Z,3.43
2017-10-06T15:37:10.759Z,6.07
2017-10-06T15:39:38.334Z,3.77
2017-10-06T15:42:05.878Z,4.47
2017-10-06T15:44:33.448Z,4.77
2017-10-06T15:47:00.985Z,4.00
2017-10-06T15:49:29.320Z,3.80
2017-10-06T15:51:56.851Z,6.70
2017-10-06T15:54:24.392Z,4.10
2017-10-06T15:56:52.726Z,6.50
2017-10-06T15:59:20.264Z,3.40
2017-10-06T16:01:47.840Z,3.87
2017-10-06T16:04:15.388Z,3.97
2017-10-06T16:06:42.962Z,3.27
2017-10-06T16:09:10.503Z,4.83
2017-10-06T16:11:38.071Z,9.20
2017-10-06T16:14:05.616Z,3.50
2017-10-06T16:16:33.185Z,3.07
2017-10-06T16:19:00.737Z,6.50
2017-10-06T16:21:28.304Z,4.23
2017-10-06T16:23:55.845Z,6.23
2017-10-06T16:26:23.418Z,7.50
2017-10-06T16:28:50.961Z,4.30
2017-10-06T16:31:18.523Z,3.10
2017-10-06T16:33:46.068Z,2.70
2017-10-06T16:36:14.391Z,3.60
2017-10-06T16:38:41.941Z,5.93
2017-10-06T16:41:09.499Z,3.63
2017-10-06T16:43:37.039Z,5.10
2017-10-06T16:46:04.609Z,3.20
2017-10-06T16:48:32.147Z,6.63
2017-10-06T16:50:59.690Z,3.70
2017-10-06T16:53:28.056Z,5.47
2017-10-06T16:55:55.596Z,4.73
2017-10-06T16:58:23.152Z,3.33
2017-10-06T17:00:50.696Z,3.80
2017-10-06T17:03:18.257Z,3.83
2017-10-06T17:05:45.791Z,4.40
2017-10-06T17:08:13.344Z,6.50
2017-10-06T17:10:40.880Z,3.00
2017-10-06T17:13:08.451Z,4.73
2017-10-06T17:15:36.767Z,7.83
2017-10-06T17:18:04.332Z,5.27
2017-10-06T17:20:31.887Z,5.00
2017-10-06T17:22:59.474Z,4.80
2017-10-06T17:25:27.033Z,6.00
2017-10-06T17:27:54.612Z,56.17
2017-10-06T17:30:22.177Z,13.93
2017-10-06T17:32:49.746Z,7.20
2017-10-06T17:35:18.074Z,6.03
2017-10-06T17:37:45.639Z,6.00
2017-10-06T17:40:13.197Z,3.80
2017-10-06T17:42:40.765Z,3.67
2017-10-06T17:45:08.315Z,4.60
2017-10-06T17:47:35.878Z,5.70
2017-10-06T17:50:03.429Z,6.00
2017-10-06T17:52:31.008Z,5.93
2017-10-06T17:54:58.557Z,5.17
2017-10-06T17:57:26.097Z,4.57
2017-10-06T17:59:53.653Z,6.07
2017-10-06T18:02:21.192Z,4.50
2017-10-06T18:04:49.528Z,5.20
2017-10-06T18:07:17.071Z,7.33
2017-10-06T18:09:44.641Z,8.37
2017-10-06T18:12:12.962Z,8.30
2017-10-06T18:14:41.299Z,8.00
2017-10-06T18:17:08.845Z,7.97
2017-10-06T18:19:36.413Z,12.33
2017-10-06T18:22:04.719Z,9.77
2017-10-06T18:24:32.287Z,8.40
2017-10-06T18:27:00.596Z,8.90
2017-10-06T18:29:28.155Z,6.80
2017-10-06T18:31:55.735Z,7.43
2017-10-06T18:34:23.304Z,8.10
2017-10-06T18:36:50.839Z,7.03
2017-10-06T18:39:18.412Z,6.43
2017-10-06T18:41:45.954Z,6.30
2017-10-06T18:44:13.517Z,10.47
2017-10-06T18:46:41.061Z,9.07
2017-10-06T18:49:09.388Z,10.57
2017-10-06T18:51:36.925Z,10.50
2017-10-06T18:54:04.508Z,7.57
2017-10-06T18:56:32.062Z,10.23
2017-10-06T18:58:59.606Z,7.37
2017-10-06T19:01:27.169Z,7.17
2017-10-06T19:03:54.717Z,5.73
2017-10-06T19:06:22.287Z,6.27
2017-10-06T19:08:49.827Z,5.00
2017-10-06T19:11:18.154Z,8.90
2017-10-06T19:13:45.694Z,8.40
2017-10-06T19:16:13.272Z,6.23
2017-10-06T19:18:40.818Z,6.00
2017-10-06T19:21:08.602Z,7.10
2017-10-06T19:23:36.221Z,6.57
2017-10-06T19:26:03.787Z,9.70
2017-10-06T19:28:31.320Z,6.90
2017-10-06T19:30:59.661Z,6.60
2017-10-06T19:33:27.199Z,9.03
2017-10-06T19:35:54.768Z,7.73
2017-10-06T19:38:22.355Z,7.30
2017-10-06T19:40:50.049Z,8.83
2017-10-06T19:43:17.645Z,10.60
2017-10-06T19:45:45.212Z,6.60
2017-10-06T19:48:12.744Z,7.70
2017-10-06T19:50:40.302Z,6.30
2017-10-06T19:53:07.840Z,12.73
2017-10-06T19:55:36.168Z,11.30
2017-10-06T19:58:03.711Z,7.40
2017-10-06T20:00:31.247Z,7.03
2017-10-06T20:02:58.804Z,6.27
2017-10-06T20:05:26.339Z,7.60
2017-10-06T20:07:53.903Z,11.03
2017-10-06T20:10:22.209Z,5.87
2017-10-06T20:12:49.768Z,6.57
2017-10-06T20:15:17.304Z,6.80
2017-10-06T20:17:45.633Z,8.50
2017-10-06T20:20:13.180Z,5.37
2017-10-06T20:22:40.733Z,6.73
2017-10-06T20:25:08.269Z,7.40
2017-10-06T20:27:36.595Z,6.87
2017-10-06T20:30:04.141Z,6.70
2017-10-06T20:32:31.703Z,6.20
2017-10-06T20:34:59.248Z,7.93
2017-10-06T20:37:26.807Z,6.73
2017-10-06T20:39:54.345Z,8.30
2017-10-06T20:42:22.675Z,7.77
2017-10-06T20:44:50.617Z,8.87
2017-10-06T20:47:18.219Z,8.73
2017-10-06T20:49:45.764Z,10.10
2017-10-06T20:52:13.359Z,10.50
2017-10-06T20:54:40.900Z,9.83
2017-10-06T20:57:08.468Z,8.30
2017-10-06T20:59:36.004Z,9.63
2017-10-06T21:02:03.542Z,7.90
2017-10-06T21:04:31.215Z,8.50
2017-10-06T21:06:58.748Z,9.10
2017-10-06T21:09:26.346Z,9.40
2017-10-06T21:11:54.696Z,14.10
2017-10-06T21:14:22.258Z,5.83
2017-10-06T21:16:49.799Z,8.47
2017-10-06T21:19:17.364Z,18.83
2017-10-06T21:21:44.907Z,7.00
2017-10-06T21:24:13.241Z,9.13
2017-10-06T21:26:40.785Z,9.93
2017-10-06T21:29:08.364Z,10.80
2017-10-06T21:31:35.904Z,8.77
2017-10-06T21:34:03.463Z,8.83
2017-10-06T21:36:31.004Z,6.10
2017-10-06T21:38:58.559Z,9.00
2017-10-06T21:41:26.105Z,10.03
2017-10-06T21:43:54.440Z,14.43
2017-10-06T21:46:21.981Z,9.77
2017-10-06T21:48:49.532Z,8.57
2017-10-06T21:51:17.076Z,11.10
2017-10-06T21:53:44.636Z,8.50
2017-10-06T21:56:12.176Z,11.93
2017-10-06T21:58:40.503Z,9.23
2017-10-06T22:01:08.039Z,9.87
2017-10-06T22:03:35.576Z,9.63
2017-10-06T22:06:03.911Z,10.03
2017-10-06T22:08:31.445Z,8.03
2017-10-06T22:10:59.016Z,7.07
2017-10-06T22:13:26.565Z,12.43
2017-10-06T22:15:54.125Z,7.10
2017-10-06T22:18:21.668Z,7.60
2017-10-06T22:20:49.232Z,8.13
2017-10-06T22:23:16.769Z,8.00
2017-10-06T22:25:45.105Z,11.07
2017-10-06T22:28:12.640Z,7.47
2017-10-06T22:52:06.487Z,8.13
2017-10-06T22:54:34.028Z,8.33
2017-10-06T22:57:01.591Z,10.67
2017-10-06T22:59:29.128Z,9.37
2017-10-06T23:02:03.519Z,6.97
2017-10-06T23:04:31.047Z,9.47
2017-10-06T23:06:58.612Z,10.60
2017-10-06T23:09:26.142Z,9.57
2017-10-06T23:11:53.690Z,9.00
2017-10-06T23:14:21.215Z,8.60
2017-10-06T23:16:48.779Z,9.67
2017-10-06T23:19:17.081Z,12.33
2017-10-06T23:21:44.641Z,11.40
2017-10-06T23:24:12.171Z,11.87
2017-10-06T23:26:39.731Z,8.03
2017-10-06T23:29:07.263Z,12.60
2017-10-06T23:31:34.819Z,10.40
2017-10-06T23:34:02.363Z,10.67
2017-10-06T23:36:29.909Z,14.40
2017-10-06T23:38:57.447Z,9.20
2017-10-06T23:41:25.762Z,7.43
2017-10-06T23:43:53.315Z,12.03
2017-10-06T23:46:20.878Z,10.23
2017-10-06T23:48:48.414Z,15.70
2017-10-06T23:51:15.968Z,11.27
2017-10-06T23:53:44.263Z,12.27
2017-10-06T23:56:11.817Z,13.33
2017-10-06T23:58:39.348Z,16.10
